sensor_id;sensor_type;location;lat;lon;timestamp;P1;durP1;ratioP1;P2;durP2;ratioP2
33505;SDS011;19843;51.040;13.782;2024-03-02T00:00:39;26.08;;;14.43;;
33505;SDS011;19843;51.040;13.782;2024-03-02T00:03:07;24.58;;;14.48;;
33505;SDS011;19843;51.040;13.782;2024-03-02T00:05:37;22.75;;;14.82;;
33505;SDS011;19843;51.040;13.782;2024-03-02T00:08:06;25.92;;;15.93;;
33505;SDS011;19843;51.040;13.782;2024-03-02T00:10:35;25.38;;;15.23;;
33505;SDS011;19843;51.040;13.782;2024-03-02T00:13:06;22.77;;;15.60;;
33505;SDS011;19843;51.040;13.782;2024-03-02T00:15:40;22.30;;;14.38;;
33505;SDS011;19843;51.040;13.782;2024-03-02T00:18:10;22.13;;;13.48;;
33505;SDS011;19843;51.040;13.782;2024-03-02T00:20:41;25.88;;;16.15;;
33505;SDS011;19843;51.040;13.782;2024-03-02T00:23:09;25.92;;;15.30;;
33505;SDS011;19843;51.040;13.782;2024-03-02T00:25:39;29.55;;;15.77;;
33505;SDS011;19843;51.040;13.782;2024-03-02T00:28:16;27.42;;;15.82;;
33505;SDS011;19843;51.040;13.782;2024-03-02T00:30:56;30.27;;;16.63;;
33505;SDS011;19843;51.040;13.782;2024-03-02T00:33:30;25.73;;;15.48;;
33505;SDS011;19843;51.040;13.782;2024-03-02T00:36:00;30.20;;;15.52;;
33505;SDS011;19843;51.040;13.782;2024-03-02T00:38:29;29.77;;;14.90;;
33505;SDS011;19843;51.040;13.782;2024-03-02T00:40:58;30.23;;;15.55;;
33505;SDS011;19843;51.040;13.782;2024-03-02T00:43:42;27.05;;;15.65;;
33505;SDS011;19843;51.040;13.782;2024-03-02T00:46:15;28.73;;;14.40;;
33505;SDS011;19843;51.040;13.782;2024-03-02T00:48:48;26.05;;;15.68;;
33505;SDS011;19843;51.040;13.782;2024-03-02T00:51:22;23.08;;;14.02;;
33505;SDS011;19843;51.040;13.782;2024-03-02T00:53:51;25.30;;;14.60;;
33505;SDS011;19843;51.040;13.782;2024-03-02T00:56:21;22.33;;;13.77;;
33505;SDS011;19843;51.040;13.782;2024-03-02T00:58:49;26.48;;;15.63;;
33505;SDS011;19843;51.040;13.782;2024-03-02T01:01:17;24.55;;;14.40;;
33505;SDS011;19843;51.040;13.782;2024-03-02T01:03:45;22.92;;;14.00;;
33505;SDS011;19843;51.040;13.782;2024-03-02T01:06:13;22.08;;;14.15;;
33505;SDS011;19843;51.040;13.782;2024-03-02T01:08:43;24.38;;;15.00;;
33505;SDS011;19843;51.040;13.782;2024-03-02T01:11:10;21.17;;;13.85;;
33505;SDS011;19843;51.040;13.782;2024-03-02T01:13:38;21.83;;;14.48;;
33505;SDS011;19843;51.040;13.782;2024-03-02T01:16:05;23.58;;;14.75;;
33505;SDS011;19843;51.040;13.782;2024-03-02T01:18:33;23.83;;;13.57;;
33505;SDS011;19843;51.040;13.782;2024-03-02T01:21:00;22.58;;;13.20;;
33505;SDS011;19843;51.040;13.782;2024-03-02T01:23:28;20.95;;;14.10;;
33505;SDS011;19843;51.040;13.782;2024-03-02T01:25:57;24.83;;;15.52;;
33505;SDS011;19843;51.040;13.782;2024-03-02T01:28:24;21.35;;;12.80;;
33505;SDS011;19843;51.040;13.782;2024-03-02T01:30:52;21.50;;;12.60;;
33505;SDS011;19843;51.040;13.782;2024-03-02T01:33:19;21.35;;;14.32;;
33505;SDS011;19843;51.040;13.782;2024-03-02T01:35:47;22.98;;;14.13;;
33505;SDS011;19843;51.040;13.782;2024-03-02T01:38:15;23.45;;;15.18;;
33505;SDS011;19843;51.040;13.782;2024-03-02T01:40:42;26.70;;;14.98;;
33505;SDS011;19843;51.040;13.782;2024-03-02T01:43:12;24.63;;;14.30;;
33505;SDS011;19843;51.040;13.782;2024-03-02T01:45:39;20.70;;;14.02;;
33505;SDS011;19843;51.040;13.782;2024-03-02T01:48:07;24.10;;;15.65;;
33505;SDS011;19843;51.040;13.782;2024-03-02T01:50:35;26.45;;;14.32;;
33505;SDS011;19843;51.040;13.782;2024-03-02T01:53:03;23.38;;;14.73;;
33505;SDS011;19843;51.040;13.782;2024-03-02T01:55:30;26.05;;;13.77;;
33505;SDS011;19843;51.040;13.782;2024-03-02T01:57:59;22.02;;;14.57;;
33505;SDS011;19843;51.040;13.782;2024-03-02T02:00:28;23.08;;;14.75;;
33505;SDS011;19843;51.040;13.782;2024-03-02T02:02:56;25.80;;;13.68;;
33505;SDS011;19843;51.040;13.782;2024-03-02T02:05:24;23.10;;;15.00;;
33505;SDS011;19843;51.040;13.782;2024-03-02T02:07:51;25.63;;;14.25;;
33505;SDS011;19843;51.040;13.782;2024-03-02T02:10:19;26.23;;;15.55;;
33505;SDS011;19843;51.040;13.782;2024-03-02T02:12:46;26.30;;;15.23;;
33505;SDS011;19843;51.040;13.782;2024-03-02T02:15:26;26.25;;;14.98;;
33505;SDS011;19843;51.040;13.782;2024-03-02T02:17:56;26.17;;;14.90;;
33505;SDS011;19843;51.040;13.782;2024-03-02T02:20:25;26.08;;;14.60;;
33505;SDS011;19843;51.040;13.782;2024-03-02T02:22:55;28.02;;;16.05;;
33505;SDS011;19843;51.040;13.782;2024-03-02T02:25:23;27.73;;;15.68;;
33505;SDS011;19843;51.040;13.782;2024-03-02T02:27:51;25.45;;;14.45;;
33505;SDS011;19843;51.040;13.782;2024-03-02T02:30:19;28.52;;;15.55;;
33505;SDS011;19843;51.040;13.782;2024-03-02T02:32:48;28.40;;;15.50;;
33505;SDS011;19843;51.040;13.782;2024-03-02T02:35:16;26.80;;;17.15;;
33505;SDS011;19843;51.040;13.782;2024-03-02T02:37:43;24.75;;;15.30;;
33505;SDS011;19843;51.040;13.782;2024-03-02T02:40:14;23.85;;;15.13;;
33505;SDS011;19843;51.040;13.782;2024-03-02T02:42:42;28.35;;;16.40;;
33505;SDS011;19843;51.040;13.782;2024-03-02T02:45:09;28.17;;;16.20;;
33505;SDS011;19843;51.040;13.782;2024-03-02T02:47:39;30.33;;;16.45;;
33505;SDS011;19843;51.040;13.782;2024-03-02T02:50:07;27.70;;;15.43;;
33505;SDS011;19843;51.040;13.782;2024-03-02T02:52:35;25.95;;;15.45;;
33505;SDS011;19843;51.040;13.782;2024-03-02T02:55:06;31.38;;;15.30;;
33505;SDS011;19843;51.040;13.782;2024-03-02T02:57:36;32.72;;;16.67;;
33505;SDS011;19843;51.040;13.782;2024-03-02T03:00:06;29.98;;;16.33;;
33505;SDS011;19843;51.040;13.782;2024-03-02T03:02:40;31.98;;;16.55;;
33505;SDS011;19843;51.040;13.782;2024-03-02T03:05:09;28.40;;;16.30;;
33505;SDS011;19843;51.040;13.782;2024-03-02T03:07:37;27.52;;;14.98;;
33505;SDS011;19843;51.040;13.782;2024-03-02T03:10:06;28.85;;;15.32;;
33505;SDS011;19843;51.040;13.782;2024-03-02T03:12:35;26.35;;;14.65;;
33505;SDS011;19843;51.040;13.782;2024-03-02T03:15:04;28.77;;;15.75;;
33505;SDS011;19843;51.040;13.782;2024-03-02T03:17:33;32.30;;;15.45;;
33505;SDS011;19843;51.040;13.782;2024-03-02T03:20:01;30.58;;;15.27;;
33505;SDS011;19843;51.040;13.782;2024-03-02T03:22:30;30.55;;;16.58;;
33505;SDS011;19843;51.040;13.782;2024-03-02T03:24:58;29.75;;;15.80;;
33505;SDS011;19843;51.040;13.782;2024-03-02T03:27:26;28.13;;;15.15;;
33505;SDS011;19843;51.040;13.782;2024-03-02T03:29:55;28.75;;;14.68;;
33505;SDS011;19843;51.040;13.782;2024-03-02T03:32:22;32.55;;;16.05;;
33505;SDS011;19843;51.040;13.782;2024-03-02T03:34:51;29.95;;;16.55;;
33505;SDS011;19843;51.040;13.782;2024-03-02T03:37:18;30.80;;;16.25;;
33505;SDS011;19843;51.040;13.782;2024-03-02T03:39:45;37.78;;;18.38;;
33505;SDS011;19843;51.040;13.782;2024-03-02T03:42:13;33.92;;;16.88;;
33505;SDS011;19843;51.040;13.782;2024-03-02T03:44:40;30.80;;;15.23;;
33505;SDS011;19843;51.040;13.782;2024-03-02T03:47:09;32.47;;;15.65;;
33505;SDS011;19843;51.040;13.782;2024-03-02T03:49:37;34.20;;;15.50;;
33505;SDS011;19843;51.040;13.782;2024-03-02T03:52:04;34.25;;;15.88;;
33505;SDS011;19843;51.040;13.782;2024-03-02T03:54:32;32.47;;;17.35;;
33505;SDS011;19843;51.040;13.782;2024-03-02T03:56:59;30.42;;;17.10;;
33505;SDS011;19843;51.040;13.782;2024-03-02T03:59:27;37.65;;;17.13;;
33505;SDS011;19843;51.040;13.782;2024-03-02T04:01:54;36.88;;;16.42;;
33505;SDS011;19843;51.040;13.782;2024-03-02T04:04:23;32.08;;;17.42;;
33505;SDS011;19843;51.040;13.782;2024-03-02T04:06:50;32.72;;;16.98;;
33505;SDS011;19843;51.040;13.782;2024-03-02T04:09:18;37.63;;;16.45;;
33505;SDS011;19843;51.040;13.782;2024-03-02T04:11:45;31.50;;;15.20;;
33505;SDS011;19843;51.040;13.782;2024-03-02T04:14:13;31.35;;;14.77;;
33505;SDS011;19843;51.040;13.782;2024-03-02T04:16:40;35.10;;;18.40;;
33505;SDS011;19843;51.040;13.782;2024-03-02T04:19:08;37.95;;;16.77;;
33505;SDS011;19843;51.040;13.782;2024-03-02T04:21:36;34.13;;;17.67;;
33505;SDS011;19843;51.040;13.782;2024-03-02T04:24:04;34.75;;;17.25;;
33505;SDS011;19843;51.040;13.782;2024-03-02T04:26:32;35.22;;;18.15;;
33505;SDS011;19843;51.040;13.782;2024-03-02T04:28:59;33.30;;;16.52;;
33505;SDS011;19843;51.040;13.782;2024-03-02T04:31:28;33.20;;;17.52;;
33505;SDS011;19843;51.040;13.782;2024-03-02T04:33:55;35.80;;;16.83;;
33505;SDS011;19843;51.040;13.782;2024-03-02T04:36:23;35.03;;;16.67;;
33505;SDS011;19843;51.040;13.782;2024-03-02T04:38:52;36.42;;;16.30;;
33505;SDS011;19843;51.040;13.782;2024-03-02T04:41:19;34.90;;;17.77;;
33505;SDS011;19843;51.040;13.782;2024-03-02T04:43:47;31.65;;;15.75;;
33505;SDS011;19843;51.040;13.782;2024-03-02T04:46:14;34.15;;;17.75;;
33505;SDS011;19843;51.040;13.782;2024-03-02T04:48:41;36.03;;;17.42;;
33505;SDS011;19843;51.040;13.782;2024-03-02T04:51:09;35.00;;;16.50;;
33505;SDS011;19843;51.040;13.782;2024-03-02T04:53:37;33.03;;;16.38;;
33505;SDS011;19843;51.040;13.782;2024-03-02T04:56:06;36.22;;;16.90;;
33505;SDS011;19843;51.040;13.782;2024-03-02T04:58:51;31.10;;;16.30;;
33505;SDS011;19843;51.040;13.782;2024-03-02T05:01:18;37.25;;;15.95;;
33505;SDS011;19843;51.040;13.782;2024-03-02T05:03:46;31.77;;;14.70;;
33505;SDS011;19843;51.040;13.782;2024-03-02T05:06:13;36.85;;;16.92;;
33505;SDS011;19843;51.040;13.782;2024-03-02T05:08:41;31.70;;;17.10;;
33505;SDS011;19843;51.040;13.782;2024-03-02T05:11:12;31.45;;;15.10;;
33505;SDS011;19843;51.040;13.782;2024-03-02T05:14:05;31.65;;;16.13;;
33505;SDS011;19843;51.040;13.782;2024-03-02T05:16:33;33.97;;;16.90;;
33505;SDS011;19843;51.040;13.782;2024-03-02T05:19:01;36.72;;;14.55;;
33505;SDS011;19843;51.040;13.782;2024-03-02T05:21:28;32.58;;;16.20;;
33505;SDS011;19843;51.040;13.782;2024-03-02T05:23:56;34.65;;;15.60;;
33505;SDS011;19843;51.040;13.782;2024-03-02T05:26:25;32.47;;;15.73;;
33505;SDS011;19843;51.040;13.782;2024-03-02T05:28:53;32.92;;;15.85;;
33505;SDS011;19843;51.040;13.782;2024-03-02T05:31:20;34.20;;;16.92;;
33505;SDS011;19843;51.040;13.782;2024-03-02T05:33:47;31.27;;;14.48;;
33505;SDS011;19843;51.040;13.782;2024-03-02T05:36:19;30.45;;;15.65;;
33505;SDS011;19843;51.040;13.782;2024-03-02T05:38:47;26.30;;;14.07;;
33505;SDS011;19843;51.040;13.782;2024-03-02T05:41:15;32.70;;;13.93;;
33505;SDS011;19843;51.040;13.782;2024-03-02T05:43:44;27.45;;;14.75;;
33505;SDS011;19843;51.040;13.782;2024-03-02T05:46:11;30.70;;;13.38;;
33505;SDS011;19843;51.040;13.782;2024-03-02T05:48:39;30.25;;;14.23;;
33505;SDS011;19843;51.040;13.782;2024-03-02T05:51:06;29.13;;;13.65;;
33505;SDS011;19843;51.040;13.782;2024-03-02T05:53:34;28.83;;;15.07;;
33505;SDS011;19843;51.040;13.782;2024-03-02T05:56:04;28.13;;;14.38;;
33505;SDS011;19843;51.040;13.782;2024-03-02T05:58:32;28.92;;;14.77;;
33505;SDS011;19843;51.040;13.782;2024-03-02T06:01:13;24.67;;;13.10;;
33505;SDS011;19843;51.040;13.782;2024-03-02T06:03:41;30.17;;;14.93;;
33505;SDS011;19843;51.040;13.782;2024-03-02T06:06:08;29.23;;;13.90;;
33505;SDS011;19843;51.040;13.782;2024-03-02T06:08:36;26.35;;;12.75;;
33505;SDS011;19843;51.040;13.782;2024-03-02T06:11:04;27.65;;;13.93;;
33505;SDS011;19843;51.040;13.782;2024-03-02T06:13:31;27.48;;;14.68;;
33505;SDS011;19843;51.040;13.782;2024-03-02T06:15:59;26.08;;;15.02;;
33505;SDS011;19843;51.040;13.782;2024-03-02T06:18:27;30.73;;;14.90;;
33505;SDS011;19843;51.040;13.782;2024-03-02T06:20:55;27.02;;;13.50;;
33505;SDS011;19843;51.040;13.782;2024-03-02T06:23:22;27.45;;;14.93;;
33505;SDS011;19843;51.040;13.782;2024-03-02T06:25:50;33.30;;;14.57;;
33505;SDS011;19843;51.040;13.782;2024-03-02T06:28:17;28.55;;;13.95;;
33505;SDS011;19843;51.040;13.782;2024-03-02T06:30:44;31.48;;;14.70;;
33505;SDS011;19843;51.040;13.782;2024-03-02T06:33:12;23.92;;;13.05;;
33505;SDS011;19843;51.040;13.782;2024-03-02T06:35:41;27.88;;;13.98;;
33505;SDS011;19843;51.040;13.782;2024-03-02T06:38:08;26.98;;;14.88;;
33505;SDS011;19843;51.040;13.782;2024-03-02T06:40:36;25.45;;;13.32;;
33505;SDS011;19843;51.040;13.782;2024-03-02T06:43:04;27.40;;;13.35;;
33505;SDS011;19843;51.040;13.782;2024-03-02T06:45:32;23.70;;;12.80;;
33505;SDS011;19843;51.040;13.782;2024-03-02T06:48:00;25.75;;;13.82;;
33505;SDS011;19843;51.040;13.782;2024-03-02T06:50:28;24.10;;;13.60;;
33505;SDS011;19843;51.040;13.782;2024-03-02T06:52:57;27.40;;;14.68;;
33505;SDS011;19843;51.040;13.782;2024-03-02T06:55:24;27.20;;;13.05;;
33505;SDS011;19843;51.040;13.782;2024-03-02T06:57:52;31.02;;;15.38;;
33505;SDS011;19843;51.040;13.782;2024-03-02T07:00:20;26.45;;;14.30;;
33505;SDS011;19843;51.040;13.782;2024-03-02T07:02:47;28.33;;;13.57;;
33505;SDS011;19843;51.040;13.782;2024-03-02T07:05:15;29.58;;;14.23;;
33505;SDS011;19843;51.040;13.782;2024-03-02T07:07:43;26.40;;;12.75;;
33505;SDS011;19843;51.040;13.782;2024-03-02T07:10:12;29.45;;;15.05;;
33505;SDS011;19843;51.040;13.782;2024-03-02T07:12:39;27.13;;;14.50;;
33505;SDS011;19843;51.040;13.782;2024-03-02T07:15:07;29.02;;;13.70;;
33505;SDS011;19843;51.040;13.782;2024-03-02T07:17:44;26.50;;;12.70;;
33505;SDS011;19843;51.040;13.782;2024-03-02T07:20:12;28.88;;;13.93;;
33505;SDS011;19843;51.040;13.782;2024-03-02T07:22:39;28.27;;;12.50;;
33505;SDS011;19843;51.040;13.782;2024-03-02T07:25:11;28.83;;;13.98;;
33505;SDS011;19843;51.040;13.782;2024-03-02T07:27:41;27.80;;;13.65;;
33505;SDS011;19843;51.040;13.782;2024-03-02T07:30:13;21.05;;;11.90;;
33505;SDS011;19843;51.040;13.782;2024-03-02T07:32:42;26.10;;;14.35;;
33505;SDS011;19843;51.040;13.782;2024-03-02T07:35:12;28.05;;;13.95;;
33505;SDS011;19843;51.040;13.782;2024-03-02T07:37:41;31.85;;;15.18;;
33505;SDS011;19843;51.040;13.782;2024-03-02T07:40:09;33.22;;;16.30;;
33505;SDS011;19843;51.040;13.782;2024-03-02T07:42:39;29.50;;;14.10;;
33505;SDS011;19843;51.040;13.782;2024-03-02T07:45:07;34.92;;;16.50;;
33505;SDS011;19843;51.040;13.782;2024-03-02T07:47:35;36.63;;;16.30;;
33505;SDS011;19843;51.040;13.782;2024-03-02T07:50:03;37.83;;;17.00;;
33505;SDS011;19843;51.040;13.782;2024-03-02T07:52:33;32.92;;;15.70;;
33505;SDS011;19843;51.040;13.782;2024-03-02T07:55:00;34.47;;;16.77;;
33505;SDS011;19843;51.040;13.782;2024-03-02T07:57:28;37.13;;;16.70;;
33505;SDS011;19843;51.040;13.782;2024-03-02T07:59:56;29.33;;;15.38;;
33505;SDS011;19843;51.040;13.782;2024-03-02T08:02:25;32.83;;;16.92;;
33505;SDS011;19843;51.040;13.782;2024-03-02T08:04:53;34.70;;;16.23;;
33505;SDS011;19843;51.040;13.782;2024-03-02T08:07:20;30.92;;;14.60;;
33505;SDS011;19843;51.040;13.782;2024-03-02T08:09:48;34.63;;;15.77;;
33505;SDS011;19843;51.040;13.782;2024-03-02T08:12:16;30.30;;;14.55;;
33505;SDS011;19843;51.040;13.782;2024-03-02T08:14:44;34.03;;;14.70;;
33505;SDS011;19843;51.040;13.782;2024-03-02T08:17:13;33.90;;;15.63;;
33505;SDS011;19843;51.040;13.782;2024-03-02T08:19:40;31.02;;;15.40;;
33505;SDS011;19843;51.040;13.782;2024-03-02T08:22:08;32.10;;;13.70;;
33505;SDS011;19843;51.040;13.782;2024-03-02T08:24:36;30.38;;;14.23;;
33505;SDS011;19843;51.040;13.782;2024-03-02T08:27:03;30.63;;;13.85;;
33505;SDS011;19843;51.040;13.782;2024-03-02T08:29:31;28.92;;;13.52;;
33505;SDS011;19843;51.040;13.782;2024-03-02T08:31:59;30.05;;;13.50;;
33505;SDS011;19843;51.040;13.782;2024-03-02T08:34:27;24.88;;;11.77;;
33505;SDS011;19843;51.040;13.782;2024-03-02T08:36:55;28.30;;;13.70;;
33505;SDS011;19843;51.040;13.782;2024-03-02T08:39:22;26.77;;;12.13;;
33505;SDS011;19843;51.040;13.782;2024-03-02T08:41:50;26.50;;;11.55;;
33505;SDS011;19843;51.040;13.782;2024-03-02T08:44:17;24.40;;;11.75;;
33505;SDS011;19843;51.040;13.782;2024-03-02T08:46:45;22.35;;;11.13;;
33505;SDS011;19843;51.040;13.782;2024-03-02T08:49:13;24.98;;;12.30;;
33505;SDS011;19843;51.040;13.782;2024-03-02T08:51:42;20.92;;;10.57;;
33505;SDS011;19843;51.040;13.782;2024-03-02T08:54:10;23.83;;;10.73;;
33505;SDS011;19843;51.040;13.782;2024-03-02T08:56:37;23.75;;;12.30;;
33505;SDS011;19843;51.040;13.782;2024-03-02T08:59:05;22.33;;;10.50;;
33505;SDS011;19843;51.040;13.782;2024-03-02T09:01:32;21.13;;;11.23;;
33505;SDS011;19843;51.040;13.782;2024-03-02T09:04:00;22.75;;;11.13;;
33505;SDS011;19843;51.040;13.782;2024-03-02T09:06:27;18.02;;;10.50;;
33505;SDS011;19843;51.040;13.782;2024-03-02T09:08:56;21.42;;;10.57;;
33505;SDS011;19843;51.040;13.782;2024-03-02T09:11:23;27.10;;;12.63;;
33505;SDS011;19843;51.040;13.782;2024-03-02T09:13:51;21.40;;;10.80;;
33505;SDS011;19843;51.040;13.782;2024-03-02T09:16:19;18.33;;;10.05;;
33505;SDS011;19843;51.040;13.782;2024-03-02T09:18:46;18.33;;;10.65;;
33505;SDS011;19843;51.040;13.782;2024-03-02T09:21:14;27.48;;;11.70;;
33505;SDS011;19843;51.040;13.782;2024-03-02T09:23:42;18.10;;;10.63;;
33505;SDS011;19843;51.040;13.782;2024-03-02T09:26:13;20.08;;;9.65;;
33505;SDS011;19843;51.040;13.782;2024-03-02T09:28:42;19.52;;;10.63;;
33505;SDS011;19843;51.040;13.782;2024-03-02T09:31:09;20.08;;;10.93;;
33505;SDS011;19843;51.040;13.782;2024-03-02T09:33:38;20.95;;;11.25;;
33505;SDS011;19843;51.040;13.782;2024-03-02T09:36:12;25.98;;;12.35;;
33505;SDS011;19843;51.040;13.782;2024-03-02T09:38:44;19.90;;;10.95;;
33505;SDS011;19843;51.040;13.782;2024-03-02T09:41:13;22.33;;;9.57;;
33505;SDS011;19843;51.040;13.782;2024-03-02T09:43:41;17.95;;;9.75;;
33505;SDS011;19843;51.040;13.782;2024-03-02T09:46:09;22.15;;;11.45;;
33505;SDS011;19843;51.040;13.782;2024-03-02T09:48:37;20.77;;;11.55;;
33505;SDS011;19843;51.040;13.782;2024-03-02T09:51:05;22.98;;;12.10;;
33505;SDS011;19843;51.040;13.782;2024-03-02T09:53:33;20.58;;;9.95;;
33505;SDS011;19843;51.040;13.782;2024-03-02T09:56:01;23.00;;;11.75;;
33505;SDS011;19843;51.040;13.782;2024-03-02T09:58:30;21.88;;;11.68;;
33505;SDS011;19843;51.040;13.782;2024-03-02T10:00:58;25.98;;;12.75;;
33505;SDS011;19843;51.040;13.782;2024-03-02T10:03:25;20.33;;;11.30;;
33505;SDS011;19843;51.040;13.782;2024-03-02T10:05:56;24.00;;;11.32;;
33505;SDS011;19843;51.040;13.782;2024-03-02T10:08:23;23.08;;;10.27;;
33505;SDS011;19843;51.040;13.782;2024-03-02T10:10:51;22.15;;;11.82;;
33505;SDS011;19843;51.040;13.782;2024-03-02T10:13:18;23.00;;;10.23;;
33505;SDS011;19843;51.040;13.782;2024-03-02T10:15:47;23.25;;;11.90;;
33505;SDS011;19843;51.040;13.782;2024-03-02T10:18:14;20.95;;;10.32;;
33505;SDS011;19843;51.040;13.782;2024-03-02T10:20:54;25.05;;;11.30;;
33505;SDS011;19843;51.040;13.782;2024-03-02T10:23:21;23.33;;;11.98;;
33505;SDS011;19843;51.040;13.782;2024-03-02T10:25:51;26.83;;;11.57;;
33505;SDS011;19843;51.040;13.782;2024-03-02T10:28:24;23.88;;;11.35;;
33505;SDS011;19843;51.040;13.782;2024-03-02T10:30:55;21.48;;;11.68;;
33505;SDS011;19843;51.040;13.782;2024-03-02T10:33:23;21.63;;;10.77;;
33505;SDS011;19843;51.040;13.782;2024-03-02T10:35:51;21.73;;;10.63;;
33505;SDS011;19843;51.040;13.782;2024-03-02T10:38:19;24.42;;;12.02;;
33505;SDS011;19843;51.040;13.782;2024-03-02T10:40:47;19.70;;;11.07;;
33505;SDS011;19843;51.040;13.782;2024-03-02T10:43:15;20.00;;;10.25;;
33505;SDS011;19843;51.040;13.782;2024-03-02T10:45:43;20.55;;;11.63;;
33505;SDS011;19843;51.040;13.782;2024-03-02T10:48:14;24.05;;;10.70;;
33505;SDS011;19843;51.040;13.782;2024-03-02T10:50:42;23.05;;;11.10;;
33505;SDS011;19843;51.040;13.782;2024-03-02T10:53:09;20.42;;;10.05;;
33505;SDS011;19843;51.040;13.782;2024-03-02T10:55:36;19.05;;;10.38;;
33505;SDS011;19843;51.040;13.782;2024-03-02T10:58:05;19.48;;;10.88;;
33505;SDS011;19843;51.040;13.782;2024-03-02T11:00:34;16.90;;;8.57;;
33505;SDS011;19843;51.040;13.782;2024-03-02T11:03:04;14.63;;;8.05;;
33505;SDS011;19843;51.040;13.782;2024-03-02T11:05:36;19.02;;;8.88;;
33505;SDS011;19843;51.040;13.782;2024-03-02T11:08:06;17.00;;;8.20;;
33505;SDS011;19843;51.040;13.782;2024-03-02T11:10:34;11.52;;;7.03;;
33505;SDS011;19843;51.040;13.782;2024-03-02T11:13:05;11.30;;;7.25;;
33505;SDS011;19843;51.040;13.782;2024-03-02T11:15:36;13.20;;;7.15;;
33505;SDS011;19843;51.040;13.782;2024-03-02T11:18:05;14.43;;;7.13;;
33505;SDS011;19843;51.040;13.782;2024-03-02T11:20:37;9.40;;;5.68;;
33505;SDS011;19843;51.040;13.782;2024-03-02T11:23:06;8.65;;;5.30;;
33505;SDS011;19843;51.040;13.782;2024-03-02T11:25:35;12.07;;;6.05;;
33505;SDS011;19843;51.040;13.782;2024-03-02T11:28:04;7.38;;;4.80;;
33505;SDS011;19843;51.040;13.782;2024-03-02T11:30:51;9.13;;;5.40;;
33505;SDS011;19843;51.040;13.782;2024-03-02T11:33:23;10.75;;;6.10;;
33505;SDS011;19843;51.040;13.782;2024-03-02T11:35:56;9.90;;;5.95;;
33505;SDS011;19843;51.040;13.782;2024-03-02T11:38:30;9.05;;;5.15;;
33505;SDS011;19843;51.040;13.782;2024-03-02T11:41:00;7.93;;;4.15;;
33505;SDS011;19843;51.040;13.782;2024-03-02T11:43:29;7.60;;;4.22;;
33505;SDS011;19843;51.040;13.782;2024-03-02T11:45:57;7.47;;;4.70;;
33505;SDS011;19843;51.040;13.782;2024-03-02T11:48:25;9.13;;;4.32;;
33505;SDS011;19843;51.040;13.782;2024-03-02T11:50:57;7.70;;;4.45;;
33505;SDS011;19843;51.040;13.782;2024-03-02T11:53:26;7.57;;;4.90;;
33505;SDS011;19843;51.040;13.782;2024-03-02T11:55:58;8.00;;;4.78;;
33505;SDS011;19843;51.040;13.782;2024-03-02T11:58:27;9.80;;;4.78;;
33505;SDS011;19843;51.040;13.782;2024-03-02T12:00:55;9.65;;;4.18;;
33505;SDS011;19843;51.040;13.782;2024-03-02T12:03:24;9.10;;;5.22;;
33505;SDS011;19843;51.040;13.782;2024-03-02T12:05:54;8.57;;;4.93;;
33505;SDS011;19843;51.040;13.782;2024-03-02T12:08:22;11.65;;;5.38;;
33505;SDS011;19843;51.040;13.782;2024-03-02T12:10:56;10.13;;;5.90;;
33505;SDS011;19843;51.040;13.782;2024-03-02T12:13:24;13.38;;;5.97;;
33505;SDS011;19843;51.040;13.782;2024-03-02T12:15:53;12.25;;;6.30;;
33505;SDS011;19843;51.040;13.782;2024-03-02T12:18:22;9.25;;;5.53;;
33505;SDS011;19843;51.040;13.782;2024-03-02T12:20:49;12.93;;;5.63;;
33505;SDS011;19843;51.040;13.782;2024-03-02T12:23:20;10.02;;;5.82;;
33505;SDS011;19843;51.040;13.782;2024-03-02T12:25:48;14.80;;;5.78;;
33505;SDS011;19843;51.040;13.782;2024-03-02T12:28:16;9.95;;;6.32;;
33505;SDS011;19843;51.040;13.782;2024-03-02T12:30:43;10.73;;;5.95;;
33505;SDS011;19843;51.040;13.782;2024-03-02T12:33:11;12.05;;;6.55;;
33505;SDS011;19843;51.040;13.782;2024-03-02T12:35:40;11.90;;;6.07;;
33505;SDS011;19843;51.040;13.782;2024-03-02T12:38:07;10.98;;;7.00;;
33505;SDS011;19843;51.040;13.782;2024-03-02T12:40:36;16.40;;;8.70;;
33505;SDS011;19843;51.040;13.782;2024-03-02T12:43:04;11.40;;;6.25;;
33505;SDS011;19843;51.040;13.782;2024-03-02T12:45:33;11.05;;;7.05;;
33505;SDS011;19843;51.040;13.782;2024-03-02T12:48:01;11.38;;;6.55;;
33505;SDS011;19843;51.040;13.782;2024-03-02T12:50:29;10.57;;;6.45;;
33505;SDS011;19843;51.040;13.782;2024-03-02T12:52:57;7.95;;;5.60;;
33505;SDS011;19843;51.040;13.782;2024-03-02T12:55:25;11.38;;;6.28;;
33505;SDS011;19843;51.040;13.782;2024-03-02T12:57:55;9.80;;;6.20;;
33505;SDS011;19843;51.040;13.782;2024-03-02T13:00:23;9.07;;;6.25;;
33505;SDS011;19843;51.040;13.782;2024-03-02T13:02:53;11.93;;;5.88;;
33505;SDS011;19843;51.040;13.782;2024-03-02T13:05:29;13.30;;;6.28;;
33505;SDS011;19843;51.040;13.782;2024-03-02T13:07:57;11.35;;;5.53;;
33505;SDS011;19843;51.040;13.782;2024-03-02T13:10:25;13.93;;;6.28;;
33505;SDS011;19843;51.040;13.782;2024-03-02T13:12:55;9.95;;;5.60;;
33505;SDS011;19843;51.040;13.782;2024-03-02T13:15:23;10.48;;;6.68;;
33505;SDS011;19843;51.040;13.782;2024-03-02T13:17:50;14.77;;;6.28;;
33505;SDS011;19843;51.040;13.782;2024-03-02T13:20:18;9.75;;;5.82;;
33505;SDS011;19843;51.040;13.782;2024-03-02T13:22:49;10.25;;;5.85;;
33505;SDS011;19843;51.040;13.782;2024-03-02T13:25:16;11.23;;;6.25;;
33505;SDS011;19843;51.040;13.782;2024-03-02T13:27:44;10.60;;;5.65;;
33505;SDS011;19843;51.040;13.782;2024-03-02T13:30:13;13.82;;;7.20;;
33505;SDS011;19843;51.040;13.782;2024-03-02T13:32:40;12.10;;;7.70;;
33505;SDS011;19843;51.040;13.782;2024-03-02T13:35:08;12.40;;;6.10;;
33505;SDS011;19843;51.040;13.782;2024-03-02T13:37:37;10.15;;;6.13;;
33505;SDS011;19843;51.040;13.782;2024-03-02T13:40:06;12.15;;;6.15;;
33505;SDS011;19843;51.040;13.782;2024-03-02T13:42:39;11.82;;;6.82;;
33505;SDS011;19843;51.040;13.782;2024-03-02T13:45:07;11.43;;;6.82;;
33505;SDS011;19843;51.040;13.782;2024-03-02T13:47:36;14.95;;;6.30;;
33505;SDS011;19843;51.040;13.782;2024-03-02T13:50:04;12.30;;;5.97;;
33505;SDS011;19843;51.040;13.782;2024-03-02T13:52:33;10.98;;;5.85;;
33505;SDS011;19843;51.040;13.782;2024-03-02T13:55:01;9.60;;;5.20;;
33505;SDS011;19843;51.040;13.782;2024-03-02T13:57:28;9.35;;;6.07;;
33505;SDS011;19843;51.040;13.782;2024-03-02T13:59:57;10.10;;;6.00;;
33505;SDS011;19843;51.040;13.782;2024-03-02T14:02:24;11.75;;;5.90;;
33505;SDS011;19843;51.040;13.782;2024-03-02T14:04:53;11.57;;;5.47;;
33505;SDS011;19843;51.040;13.782;2024-03-02T14:07:21;12.32;;;6.88;;
33505;SDS011;19843;51.040;13.782;2024-03-02T14:09:48;10.63;;;6.43;;
33505;SDS011;19843;51.040;13.782;2024-03-02T14:12:16;13.63;;;7.55;;
33505;SDS011;19843;51.040;13.782;2024-03-02T14:14:44;14.45;;;7.38;;
33505;SDS011;19843;51.040;13.782;2024-03-02T14:17:11;12.77;;;7.78;;
33505;SDS011;19843;51.040;13.782;2024-03-02T14:19:41;14.82;;;7.07;;
33505;SDS011;19843;51.040;13.782;2024-03-02T14:22:10;14.05;;;7.03;;